Auburn, ME

1:34 PM EST on December 19, 2014 (GMT -0500)
Augusta State | Change Station
CLOSE
Current Station
Airport
Location: Augusta,
Elevation: 351 ft
Nearby Weather Stations

Elev 351 ft 44.32 °N, 69.80 °W | Updated 41 minutes ago

Clear
Clear
32 °F
Feels Like 22 °F
N
13
Wind Variable Wind from NNW
Gusts 23 mph

Today
High -- | Low -- °F
--% Chance of Precip.
Yesterday
High -- | Low -- °F
Precip. -- in
7:11 AM 4:04 PM
Waning Crescent, 7% visible
Pressure 29.92 in
Visibility 10.0 miles
Clouds Scattered Clouds 3000 ft
Windchill 22 °F
Dew Point 20 °F
Humidity 61%
Rainfall 0.00 in
Snow Depth Not available.
UV 1 out of 12
Pollen .10 out of 12
Air Quality Not available.
Flu Activity Not available.
METAR KAUG 191753Z AUTO 34011G20KT 10SM SCT030 00/M07 A2990 RMK AO2 SLP130 T00001067 10000 21028 55007

More Conditions Fewer Conditions

Pressure 29.92 in
Visibility 10.0 miles
Clouds Scattered Clouds 3000 ft
Windchill 22 °F
Dew Point 20 °F
Humidity 61%
Rainfall 0.00 in
Snow Depth Not available.
UV 1 out of 12
Pollen .10 out of 12
Air Quality Not available.
Flu Activity Not available.
METAR KAUG 191753Z AUTO 34011G20KT 10SM SCT030 00/M07 A2990 RMK AO2 SLP130 T00001067 10000 21028 55007

More Conditions Fewer Conditions

10-Day Weather Forecast

Almanac

Astronomy

Dec. 19, 2014 Rise Set
Actual Time
Civil Twilight
Nautical Twilight
Astronomical Twilight
Moon
Length of Visible Light
Length of Day
Tomorrow will be .
, % of the Moon is Illuminated

Today's Extremes

State Highs State Lows

Community

WunderPhotos

Upload Photos

1,779,020 photos uploaded!

WunderBlogs® & News

Nearby

Air Quality

  Air Quality AQ Index Pollutant
Not available.

Snow Depth

Station Depth Elevation

Earthquake Activity

City Distance Mag. Time & Date
Minimum magnitude displayed is 2.5.

Coastal Water Temperatures

Place Temperature

Nearby Weather Stations